sensor_id;sensor_type;location;lat;lon;timestamp;temperature;humidity
63219;DHT22;49320;52.512;13.448;2023-09-18T00:00:28;22.60;63.40
63219;DHT22;49320;52.512;13.448;2023-09-18T00:02:56;22.50;63.50
63219;DHT22;49320;52.512;13.448;2023-09-18T00:05:23;22.40;63.70
63219;DHT22;49320;52.512;13.448;2023-09-18T00:07:50;22.90;64.20
63219;DHT22;49320;52.512;13.448;2023-09-18T00:10:17;22.90;64.60
63219;DHT22;49320;52.512;13.448;2023-09-18T00:12:44;22.90;64.20
63219;DHT22;49320;52.512;13.448;2023-09-18T00:17:38;22.40;64.00
63219;DHT22;49320;52.512;13.448;2023-09-18T00:20:05;22.30;64.80
63219;DHT22;49320;52.512;13.448;2023-09-18T00:22:33;22.40;64.60
63219;DHT22;49320;52.512;13.448;2023-09-18T00:27:29;22.60;64.80
63219;DHT22;49320;52.512;13.448;2023-09-18T00:29:56;22.40;65.00
63219;DHT22;49320;52.512;13.448;2023-09-18T00:39:45;22.70;65.30
63219;DHT22;49320;52.512;13.448;2023-09-18T00:42:11;22.40;65.20
63219;DHT22;49320;52.512;13.448;2023-09-18T00:47:11;22.30;65.50
63219;DHT22;49320;52.512;13.448;2023-09-18T00:49:41;22.20;64.80
63219;DHT22;49320;52.512;13.448;2023-09-18T00:52:12;22.20;64.40
63219;DHT22;49320;52.512;13.448;2023-09-18T00:54:40;22.30;65.40
63219;DHT22;49320;52.512;13.448;2023-09-18T00:57:09;22.40;61.90
63219;DHT22;49320;52.512;13.448;2023-09-18T00:59:38;22.70;64.80
63219;DHT22;49320;52.512;13.448;2023-09-18T01:04:34;22.50;65.60
63219;DHT22;49320;52.512;13.448;2023-09-18T01:09:34;22.40;65.10
63219;DHT22;49320;52.512;13.448;2023-09-18T01:17:35;22.10;65.80
63219;DHT22;49320;52.512;13.448;2023-09-18T01:20:11;22.20;66.10
63219;DHT22;49320;52.512;13.448;2023-09-18T01:22:38;22.20;66.50
63219;DHT22;49320;52.512;13.448;2023-09-18T01:25:06;22.50;66.40
63219;DHT22;49320;52.512;13.448;2023-09-18T01:27:33;22.50;66.20
63219;DHT22;49320;52.512;13.448;2023-09-18T01:30:00;22.30;66.60
63219;DHT22;49320;52.512;13.448;2023-09-18T01:32:30;22.10;62.80
63219;DHT22;49320;52.512;13.448;2023-09-18T01:35:00;22.00;63.40
63219;DHT22;49320;52.512;13.448;2023-09-18T01:37:31;22.10;63.00
63219;DHT22;49320;52.512;13.448;2023-09-18T01:40:04;21.90;66.20
63219;DHT22;49320;52.512;13.448;2023-09-18T01:42:34;22.20;66.10
63219;DHT22;49320;52.512;13.448;2023-09-18T01:45:02;22.80;66.90
63219;DHT22;49320;52.512;13.448;2023-09-18T01:47:31;22.30;66.80
63219;DHT22;49320;52.512;13.448;2023-09-18T01:50:05;21.90;63.10
63219;DHT22;49320;52.512;13.448;2023-09-18T01:52:32;22.00;64.00
63219;DHT22;49320;52.512;13.448;2023-09-18T01:54:58;22.00;64.80
63219;DHT22;49320;52.512;13.448;2023-09-18T01:59:53;22.00;65.30
63219;DHT22;49320;52.512;13.448;2023-09-18T02:02:20;22.10;67.00
63219;DHT22;49320;52.512;13.448;2023-09-18T02:07:35;21.90;68.20
63219;DHT22;49320;52.512;13.448;2023-09-18T02:14:57;21.50;68.20
63219;DHT22;49320;52.512;13.448;2023-09-18T02:19:55;21.50;65.60
63219;DHT22;49320;52.512;13.448;2023-09-18T02:22:21;21.60;67.20
63219;DHT22;49320;52.512;13.448;2023-09-18T02:24:48;21.80;67.60
63219;DHT22;49320;52.512;13.448;2023-09-18T02:27:15;21.60;67.40
63219;DHT22;49320;52.512;13.448;2023-09-18T02:29:45;21.60;66.60
63219;DHT22;49320;52.512;13.448;2023-09-18T02:32:11;21.70;66.80
63219;DHT22;49320;52.512;13.448;2023-09-18T02:39:33;21.20;68.00
63219;DHT22;49320;52.512;13.448;2023-09-18T02:44:27;21.40;67.50
63219;DHT22;49320;52.512;13.448;2023-09-18T02:49:21;21.40;67.90
63219;DHT22;49320;52.512;13.448;2023-09-18T02:54:16;21.30;68.70
63219;DHT22;49320;52.512;13.448;2023-09-18T02:56:43;21.80;69.20
63219;DHT22;49320;52.512;13.448;2023-09-18T03:01:37;21.00;68.40
63219;DHT22;49320;52.512;13.448;2023-09-18T03:04:04;21.50;69.30
63219;DHT22;49320;52.512;13.448;2023-09-18T03:06:31;21.70;69.20
63219;DHT22;49320;52.512;13.448;2023-09-18T03:08:58;21.30;69.00
63219;DHT22;49320;52.512;13.448;2023-09-18T03:11:25;21.50;67.80
63219;DHT22;49320;52.512;13.448;2023-09-18T03:16:22;21.40;68.60
63219;DHT22;49320;52.512;13.448;2023-09-18T03:18:49;21.10;68.80
63219;DHT22;49320;52.512;13.448;2023-09-18T03:21:16;21.20;68.90
63219;DHT22;49320;52.512;13.448;2023-09-18T03:23:43;21.30;68.50
63219;DHT22;49320;52.512;13.448;2023-09-18T03:28:37;21.30;69.10
63219;DHT22;49320;52.512;13.448;2023-09-18T03:31:04;21.60;69.00
63219;DHT22;49320;52.512;13.448;2023-09-18T03:33:32;21.30;69.10
63219;DHT22;49320;52.512;13.448;2023-09-18T03:40:53;21.00;69.80
63219;DHT22;49320;52.512;13.448;2023-09-18T03:48:15;21.00;70.00
63219;DHT22;49320;52.512;13.448;2023-09-18T03:50:42;21.10;70.30
63219;DHT22;49320;52.512;13.448;2023-09-18T03:53:09;21.10;66.10
63219;DHT22;49320;52.512;13.448;2023-09-18T03:58:05;21.10;71.50
63219;DHT22;49320;52.512;13.448;2023-09-18T04:00:31;21.00;71.60
63219;DHT22;49320;52.512;13.448;2023-09-18T04:05:26;20.80;71.10
63219;DHT22;49320;52.512;13.448;2023-09-18T04:07:53;21.40;71.30
63219;DHT22;49320;52.512;13.448;2023-09-18T04:15:19;21.50;67.40
63219;DHT22;49320;52.512;13.448;2023-09-18T04:17:47;21.00;66.80
63219;DHT22;49320;52.512;13.448;2023-09-18T04:22:44;21.00;66.90
63219;DHT22;49320;52.512;13.448;2023-09-18T04:25:16;21.60;70.30
63219;DHT22;49320;52.512;13.448;2023-09-18T04:27:46;21.00;70.50
63219;DHT22;49320;52.512;13.448;2023-09-18T04:32:41;20.80;69.90
63219;DHT22;49320;52.512;13.448;2023-09-18T04:35:08;20.80;69.90
63219;DHT22;49320;52.512;13.448;2023-09-18T04:37:36;20.60;69.70
63219;DHT22;49320;52.512;13.448;2023-09-18T04:40:05;20.90;67.50
63219;DHT22;49320;52.512;13.448;2023-09-18T04:45:05;20.90;67.50
63219;DHT22;49320;52.512;13.448;2023-09-18T04:49:59;20.90;73.40
63219;DHT22;49320;52.512;13.448;2023-09-18T04:54:54;21.20;72.50
63219;DHT22;49320;52.512;13.448;2023-09-18T04:57:21;20.80;71.50
63219;DHT22;49320;52.512;13.448;2023-09-18T05:02:35;21.00;72.50
63219;DHT22;49320;52.512;13.448;2023-09-18T05:05:03;20.60;70.80
63219;DHT22;49320;52.512;13.448;2023-09-18T05:07:30;21.10;71.30
63219;DHT22;49320;52.512;13.448;2023-09-18T05:09:59;20.80;71.30
63219;DHT22;49320;52.512;13.448;2023-09-18T05:12:26;20.80;72.10
63219;DHT22;49320;52.512;13.448;2023-09-18T05:14:53;20.80;69.00
63219;DHT22;49320;52.512;13.448;2023-09-18T05:17:20;20.90;69.10
63219;DHT22;49320;52.512;13.448;2023-09-18T05:19:47;20.90;69.30
63219;DHT22;49320;52.512;13.448;2023-09-18T05:22:14;21.00;73.30
63219;DHT22;49320;52.512;13.448;2023-09-18T05:24:44;20.90;72.20
63219;DHT22;49320;52.512;13.448;2023-09-18T05:27:12;20.90;69.30
63219;DHT22;49320;52.512;13.448;2023-09-18T05:29:39;20.90;69.30
63219;DHT22;49320;52.512;13.448;2023-09-18T05:32:06;21.10;73.00
63219;DHT22;49320;52.512;13.448;2023-09-18T05:34:33;22.40;70.50
63219;DHT22;49320;52.512;13.448;2023-09-18T05:37:00;20.90;68.80
63219;DHT22;49320;52.512;13.448;2023-09-18T05:39:26;21.00;69.50
63219;DHT22;49320;52.512;13.448;2023-09-18T05:41:53;21.00;69.80
63219;DHT22;49320;52.512;13.448;2023-09-18T05:44:20;21.00;69.50
63219;DHT22;49320;52.512;13.448;2023-09-18T05:46:47;21.00;70.00
63219;DHT22;49320;52.512;13.448;2023-09-18T05:49:14;21.00;69.60
63219;DHT22;49320;52.512;13.448;2023-09-18T05:51:41;21.10;69.60
63219;DHT22;49320;52.512;13.448;2023-09-18T05:54:08;21.20;69.70
63219;DHT22;49320;52.512;13.448;2023-09-18T05:56:35;21.20;69.60
63219;DHT22;49320;52.512;13.448;2023-09-18T05:59:02;21.40;72.30
63219;DHT22;49320;52.512;13.448;2023-09-18T06:01:28;21.40;70.60
63219;DHT22;49320;52.512;13.448;2023-09-18T06:03:55;21.40;69.60
63219;DHT22;49320;52.512;13.448;2023-09-18T06:06:22;21.50;69.50
63219;DHT22;49320;52.512;13.448;2023-09-18T06:13:44;21.70;68.60
63219;DHT22;49320;52.512;13.448;2023-09-18T06:16:11;21.80;69.20
63219;DHT22;49320;52.512;13.448;2023-09-18T06:18:38;21.90;68.50
63219;DHT22;49320;52.512;13.448;2023-09-18T06:21:05;22.00;68.90
63219;DHT22;49320;52.512;13.448;2023-09-18T06:23:32;22.00;68.90
63219;DHT22;49320;52.512;13.448;2023-09-18T06:25:59;17.10;69.50
63219;DHT22;49320;52.512;13.448;2023-09-18T06:28:27;22.10;68.50
63219;DHT22;49320;52.512;13.448;2023-09-18T06:30:53;21.90;71.40
63219;DHT22;49320;52.512;13.448;2023-09-18T06:33:22;22.00;71.30
63219;DHT22;49320;52.512;13.448;2023-09-18T06:35:49;22.20;71.70
63219;DHT22;49320;52.512;13.448;2023-09-18T06:38:18;22.50;70.90
63219;DHT22;49320;52.512;13.448;2023-09-18T06:40:45;22.60;71.00
63219;DHT22;49320;52.512;13.448;2023-09-18T06:43:11;22.30;71.10
63219;DHT22;49320;52.512;13.448;2023-09-18T06:45:38;22.60;72.00
63219;DHT22;49320;52.512;13.448;2023-09-18T06:48:05;22.60;67.80
63219;DHT22;49320;52.512;13.448;2023-09-18T06:50:32;22.70;67.70
63219;DHT22;49320;52.512;13.448;2023-09-18T06:53:00;22.60;71.20
63219;DHT22;49320;52.512;13.448;2023-09-18T06:55:26;22.80;67.50
63219;DHT22;49320;52.512;13.448;2023-09-18T06:57:53;22.80;67.40
63219;DHT22;49320;52.512;13.448;2023-09-18T07:00:20;22.90;67.30
63219;DHT22;49320;52.512;13.448;2023-09-18T07:02:48;23.10;70.30
63219;DHT22;49320;52.512;13.448;2023-09-18T07:05:16;23.10;71.00
63219;DHT22;49320;52.512;13.448;2023-09-18T07:07:43;23.00;67.00
63219;DHT22;49320;52.512;13.448;2023-09-18T07:10:10;23.10;66.80
63219;DHT22;49320;52.512;13.448;2023-09-18T07:12:37;23.30;69.30
63219;DHT22;49320;52.512;13.448;2023-09-18T07:15:05;23.00;66.50
63219;DHT22;49320;52.512;13.448;2023-09-18T07:17:33;23.30;66.60
63219;DHT22;49320;52.512;13.448;2023-09-18T07:20:02;23.30;65.90
63219;DHT22;49320;52.512;13.448;2023-09-18T07:25:11;23.40;65.70
63219;DHT22;49320;52.512;13.448;2023-09-18T07:27:38;23.50;66.30
63219;DHT22;49320;52.512;13.448;2023-09-18T07:32:42;23.50;65.60
63219;DHT22;49320;52.512;13.448;2023-09-18T07:35:10;23.80;67.00
63219;DHT22;49320;52.512;13.448;2023-09-18T07:37:37;23.60;65.50
63219;DHT22;49320;52.512;13.448;2023-09-18T07:40:06;23.70;66.00
63219;DHT22;49320;52.512;13.448;2023-09-18T07:42:33;23.80;65.90
63219;DHT22;49320;52.512;13.448;2023-09-18T07:45:00;23.80;65.80
63219;DHT22;49320;52.512;13.448;2023-09-18T07:47:27;24.00;65.80
63219;DHT22;49320;52.512;13.448;2023-09-18T07:49:55;24.00;65.70
63219;DHT22;49320;52.512;13.448;2023-09-18T07:52:21;23.90;65.70
63219;DHT22;49320;52.512;13.448;2023-09-18T07:54:48;24.20;65.50
63219;DHT22;49320;52.512;13.448;2023-09-18T07:57:16;24.20;65.30
63219;DHT22;49320;52.512;13.448;2023-09-18T07:59:42;24.30;65.20
63219;DHT22;49320;52.512;13.448;2023-09-18T08:02:09;24.40;65.20
63219;DHT22;49320;52.512;13.448;2023-09-18T08:04:36;24.50;65.20
63219;DHT22;49320;52.512;13.448;2023-09-18T08:07:03;24.50;65.00
63219;DHT22;49320;52.512;13.448;2023-09-18T08:09:33;24.60;64.80
63219;DHT22;49320;52.512;13.448;2023-09-18T08:12:03;24.70;64.60
63219;DHT22;49320;52.512;13.448;2023-09-18T08:14:31;24.80;64.50
63219;DHT22;49320;52.512;13.448;2023-09-18T08:16:59;24.90;63.50
63219;DHT22;49320;52.512;13.448;2023-09-18T08:19:27;25.00;63.10
63219;DHT22;49320;52.512;13.448;2023-09-18T08:21:54;25.00;63.90
63219;DHT22;49320;52.512;13.448;2023-09-18T08:24:22;25.10;63.70
63219;DHT22;49320;52.512;13.448;2023-09-18T08:26:49;25.20;63.70
63219;DHT22;49320;52.512;13.448;2023-09-18T08:29:17;25.20;63.40
63219;DHT22;49320;52.512;13.448;2023-09-18T08:31:44;25.40;62.50
63219;DHT22;49320;52.512;13.448;2023-09-18T08:34:11;25.40;63.30
63219;DHT22;49320;52.512;13.448;2023-09-18T08:36:38;25.50;63.20
63219;DHT22;49320;52.512;13.448;2023-09-18T08:39:05;25.60;63.00
63219;DHT22;49320;52.512;13.448;2023-09-18T08:41:40;25.80;61.90
63219;DHT22;49320;52.512;13.448;2023-09-18T08:44:09;25.60;62.40
63219;DHT22;49320;52.512;13.448;2023-09-18T08:46:39;25.90;62.40
63219;DHT22;49320;52.512;13.448;2023-09-18T08:49:07;26.00;62.30
63219;DHT22;49320;52.512;13.448;2023-09-18T08:51:34;25.70;63.60
63219;DHT22;49320;52.512;13.448;2023-09-18T08:54:04;26.10;64.90
63219;DHT22;49320;52.512;13.448;2023-09-18T08:56:33;26.40;63.30
63219;DHT22;49320;52.512;13.448;2023-09-18T08:59:01;26.30;61.90
63219;DHT22;49320;52.512;13.448;2023-09-18T09:01:27;26.50;63.00
63219;DHT22;49320;52.512;13.448;2023-09-18T09:03:54;26.40;61.50
63219;DHT22;49320;52.512;13.448;2023-09-18T09:06:22;26.60;61.30
63219;DHT22;49320;52.512;13.448;2023-09-18T09:08:49;26.60;61.10
63219;DHT22;49320;52.512;13.448;2023-09-18T09:11:17;26.80;60.80
63219;DHT22;49320;52.512;13.448;2023-09-18T09:13:46;27.10;60.30
63219;DHT22;49320;52.512;13.448;2023-09-18T09:16:13;26.90;60.40
63219;DHT22;49320;52.512;13.448;2023-09-18T09:18:50;27.20;59.70
63219;DHT22;49320;52.512;13.448;2023-09-18T09:21:19;27.20;59.80
63219;DHT22;49320;52.512;13.448;2023-09-18T09:23:50;27.30;60.00
63219;DHT22;49320;52.512;13.448;2023-09-18T09:26:21;27.40;59.80
63219;DHT22;49320;52.512;13.448;2023-09-18T09:28:50;27.50;59.60
63219;DHT22;49320;52.512;13.448;2023-09-18T09:31:28;27.70;59.50
63219;DHT22;49320;52.512;13.448;2023-09-18T09:33:56;27.80;58.90
63219;DHT22;49320;52.512;13.448;2023-09-18T09:36:24;28.00;59.20
63219;DHT22;49320;52.512;13.448;2023-09-18T09:38:55;27.90;59.00
63219;DHT22;49320;52.512;13.448;2023-09-18T09:41:25;28.20;57.40
63219;DHT22;49320;52.512;13.448;2023-09-18T09:46:24;28.40;57.70
63219;DHT22;49320;52.512;13.448;2023-09-18T09:49:03;23.60;55.00
63219;DHT22;49320;52.512;13.448;2023-09-18T09:51:32;28.60;57.10
63219;DHT22;49320;52.512;13.448;2023-09-18T09:54:00;28.70;57.40
63219;DHT22;49320;52.512;13.448;2023-09-18T09:56:45;28.80;57.40
63219;DHT22;49320;52.512;13.448;2023-09-18T09:59:18;28.90;56.40
63219;DHT22;49320;52.512;13.448;2023-09-18T10:01:49;29.00;57.10
63219;DHT22;49320;52.512;13.448;2023-09-18T10:04:18;29.00;56.10
63219;DHT22;49320;52.512;13.448;2023-09-18T10:06:57;29.10;56.60
63219;DHT22;49320;52.512;13.448;2023-09-18T10:09:35;29.20;55.90
63219;DHT22;49320;52.512;13.448;2023-09-18T10:12:11;29.30;56.30
63219;DHT22;49320;52.512;13.448;2023-09-18T10:14:39;29.30;55.80
63219;DHT22;49320;52.512;13.448;2023-09-18T10:17:26;29.50;55.30
63219;DHT22;49320;52.512;13.448;2023-09-18T10:20:08;29.50;53.60
63219;DHT22;49320;52.512;13.448;2023-09-18T10:22:39;29.60;54.90
63219;DHT22;49320;52.512;13.448;2023-09-18T10:25:28;29.70;55.40
63219;DHT22;49320;52.512;13.448;2023-09-18T10:27:59;29.70;54.00
63219;DHT22;49320;52.512;13.448;2023-09-18T10:30:29;29.80;55.40
63219;DHT22;49320;52.512;13.448;2023-09-18T10:32:59;29.90;55.40
63219;DHT22;49320;52.512;13.448;2023-09-18T10:35:28;30.10;54.80
63219;DHT22;49320;52.512;13.448;2023-09-18T10:37:56;30.00;55.10
63219;DHT22;49320;52.512;13.448;2023-09-18T10:40:25;30.10;55.10
63219;DHT22;49320;52.512;13.448;2023-09-18T10:42:54;30.20;55.00
63219;DHT22;49320;52.512;13.448;2023-09-18T10:45:24;30.20;54.40
63219;DHT22;49320;52.512;13.448;2023-09-18T10:47:53;30.30;54.20
63219;DHT22;49320;52.512;13.448;2023-09-18T10:50:26;30.30;54.00
63219;DHT22;49320;52.512;13.448;2023-09-18T10:52:57;30.40;52.80
63219;DHT22;49320;52.512;13.448;2023-09-18T10:55:25;30.40;52.80
63219;DHT22;49320;52.512;13.448;2023-09-18T10:57:54;30.40;53.80
63219;DHT22;49320;52.512;13.448;2023-09-18T11:00:27;30.40;52.70
63219;DHT22;49320;52.512;13.448;2023-09-18T11:03:13;30.50;53.10
63219;DHT22;49320;52.512;13.448;2023-09-18T11:05:46;30.40;52.40
63219;DHT22;49320;52.512;13.448;2023-09-18T11:11:18;30.40;52.20
63219;DHT22;49320;52.512;13.448;2023-09-18T11:13:52;30.30;52.80
63219;DHT22;49320;52.512;13.448;2023-09-18T11:21:31;30.40;51.70
63219;DHT22;49320;52.512;13.448;2023-09-18T11:24:00;30.40;52.70
63219;DHT22;49320;52.512;13.448;2023-09-18T11:26:31;30.40;53.00
63219;DHT22;49320;52.512;13.448;2023-09-18T11:29:04;30.30;52.70
63219;DHT22;49320;52.512;13.448;2023-09-18T11:31:47;30.30;52.70
63219;DHT22;49320;52.512;13.448;2023-09-18T11:34:25;30.30;52.00
63219;DHT22;49320;52.512;13.448;2023-09-18T11:36:53;30.40;53.00
63219;DHT22;49320;52.512;13.448;2023-09-18T11:39:37;30.30;52.70
63219;DHT22;49320;52.512;13.448;2023-09-18T11:42:19;30.30;52.00
63219;DHT22;49320;52.512;13.448;2023-09-18T11:44:53;30.20;52.10
63219;DHT22;49320;52.512;13.448;2023-09-18T11:47:24;30.30;52.50
63219;DHT22;49320;52.512;13.448;2023-09-18T11:49:57;30.30;52.20
63219;DHT22;49320;52.512;13.448;2023-09-18T11:52:27;30.30;52.60
63219;DHT22;49320;52.512;13.448;2023-09-18T11:54:56;30.20;52.50
63219;DHT22;49320;52.512;13.448;2023-09-18T11:57:26;30.10;52.50
63219;DHT22;49320;52.512;13.448;2023-09-18T11:59:55;30.20;52.60
63219;DHT22;49320;52.512;13.448;2023-09-18T12:02:30;30.10;52.50
63219;DHT22;49320;52.512;13.448;2023-09-18T12:05:13;30.10;52.40
63219;DHT22;49320;52.512;13.448;2023-09-18T12:07:43;30.10;52.50
63219;DHT22;49320;52.512;13.448;2023-09-18T12:10:16;30.00;52.70
63219;DHT22;49320;52.512;13.448;2023-09-18T12:12:45;30.00;52.60
63219;DHT22;49320;52.512;13.448;2023-09-18T12:15:13;30.00;52.70
63219;DHT22;49320;52.512;13.448;2023-09-18T12:17:41;30.10;52.90
63219;DHT22;49320;52.512;13.448;2023-09-18T12:20:15;30.00;54.90
63219;DHT22;49320;52.512;13.448;2023-09-18T12:22:50;30.00;52.80
63219;DHT22;49320;52.512;13.448;2023-09-18T12:25:17;30.00;52.80
63219;DHT22;49320;52.512;13.448;2023-09-18T12:27:52;30.10;52.80
63219;DHT22;49320;52.512;13.448;2023-09-18T12:30:21;30.20;52.40
63219;DHT22;49320;52.512;13.448;2023-09-18T12:32:51;30.20;52.50
63219;DHT22;49320;52.512;13.448;2023-09-18T12:35:18;30.20;52.40
63219;DHT22;49320;52.512;13.448;2023-09-18T12:37:45;30.30;52.30
63219;DHT22;49320;52.512;13.448;2023-09-18T12:42:57;30.40;51.10
63219;DHT22;49320;52.512;13.448;2023-09-18T12:45:27;30.40;51.80
63219;DHT22;49320;52.512;13.448;2023-09-18T12:47:57;30.40;51.80
63219;DHT22;49320;52.512;13.448;2023-09-18T12:50:25;30.40;50.70
63219;DHT22;49320;52.512;13.448;2023-09-18T12:52:53;30.40;51.50
63219;DHT22;49320;52.512;13.448;2023-09-18T12:55:26;30.30;51.40
63219;DHT22;49320;52.512;13.448;2023-09-18T12:57:54;30.40;51.50
63219;DHT22;49320;52.512;13.448;2023-09-18T13:00:23;30.40;51.70
63219;DHT22;49320;52.512;13.448;2023-09-18T13:02:53;30.30;50.80
63219;DHT22;49320;52.512;13.448;2023-09-18T13:05:23;30.80;51.90
63219;DHT22;49320;52.512;13.448;2023-09-18T13:08:04;30.10;51.60
63219;DHT22;49320;52.512;13.448;2023-09-18T13:10:44;30.10;50.90
63219;DHT22;49320;52.512;13.448;2023-09-18T13:13:16;30.10;51.50
63219;DHT22;49320;52.512;13.448;2023-09-18T13:15:48;30.10;51.70
63219;DHT22;49320;52.512;13.448;2023-09-18T13:18:19;30.00;51.20
63219;DHT22;49320;52.512;13.448;2023-09-18T13:20:46;29.90;52.00
63219;DHT22;49320;52.512;13.448;2023-09-18T13:23:13;29.90;52.10
63219;DHT22;49320;52.512;13.448;2023-09-18T13:25:47;29.90;52.20
63219;DHT22;49320;52.512;13.448;2023-09-18T13:28:14;29.80;52.20
63219;DHT22;49320;52.512;13.448;2023-09-18T13:30:42;29.80;51.80
63219;DHT22;49320;52.512;13.448;2023-09-18T13:33:11;29.80;52.30
63219;DHT22;49320;52.512;13.448;2023-09-18T13:35:41;29.80;51.90
63219;DHT22;49320;52.512;13.448;2023-09-18T13:38:10;29.70;52.20
63219;DHT22;49320;52.512;13.448;2023-09-18T13:40:41;29.60;52.10
63219;DHT22;49320;52.512;13.448;2023-09-18T13:43:09;29.60;52.40
63219;DHT22;49320;52.512;13.448;2023-09-18T13:45:37;29.50;52.20
63219;DHT22;49320;52.512;13.448;2023-09-18T13:48:05;29.60;52.70
63219;DHT22;49320;52.512;13.448;2023-09-18T13:50:33;29.50;53.10
63219;DHT22;49320;52.512;13.448;2023-09-18T13:53:02;29.50;53.30
63219;DHT22;49320;52.512;13.448;2023-09-18T13:55:31;29.40;53.60
63219;DHT22;49320;52.512;13.448;2023-09-18T13:57:58;29.30;53.70
63219;DHT22;49320;52.512;13.448;2023-09-18T14:00:26;29.20;54.20
63219;DHT22;49320;52.512;13.448;2023-09-18T14:02:53;29.00;54.00
63219;DHT22;49320;52.512;13.448;2023-09-18T14:05:21;29.00;54.20
63219;DHT22;49320;52.512;13.448;2023-09-18T14:07:48;28.90;54.40
63219;DHT22;49320;52.512;13.448;2023-09-18T14:12:45;28.90;54.00
63219;DHT22;49320;52.512;13.448;2023-09-18T14:15:12;28.90;54.40
63219;DHT22;49320;52.512;13.448;2023-09-18T14:17:39;28.80;54.70
63219;DHT22;49320;52.512;13.448;2023-09-18T14:20:06;28.90;54.30
63219;DHT22;49320;52.512;13.448;2023-09-18T14:22:34;28.90;54.70
63219;DHT22;49320;52.512;13.448;2023-09-18T14:25:02;28.70;54.70
63219;DHT22;49320;52.512;13.448;2023-09-18T14:30:03;28.80;54.50
63219;DHT22;49320;52.512;13.448;2023-09-18T14:32:34;28.80;55.70
63219;DHT22;49320;52.512;13.448;2023-09-18T14:35:03;29.00;58.20
63219;DHT22;49320;52.512;13.448;2023-09-18T14:37:31;28.80;55.20
63219;DHT22;49320;52.512;13.448;2023-09-18T14:39:58;28.60;56.10
63219;DHT22;49320;52.512;13.448;2023-09-18T14:42:25;28.70;54.70
63219;DHT22;49320;52.512;13.448;2023-09-18T14:44:52;28.60;54.50
63219;DHT22;49320;52.512;13.448;2023-09-18T14:47:19;28.40;55.60
63219;DHT22;49320;52.512;13.448;2023-09-18T14:52:16;28.30;55.00
63219;DHT22;49320;52.512;13.448;2023-09-18T14:54:45;28.30;55.60
63219;DHT22;49320;52.512;13.448;2023-09-18T14:57:12;28.40;54.80
63219;DHT22;49320;52.512;13.448;2023-09-18T14:59:39;28.60;57.70
63219;DHT22;49320;52.512;13.448;2023-09-18T15:04:37;28.30;54.10
63219;DHT22;49320;52.512;13.448;2023-09-18T15:07:04;28.10;57.10
63219;DHT22;49320;52.512;13.448;2023-09-18T15:09:31;28.30;56.50
63219;DHT22;49320;52.512;13.448;2023-09-18T15:11:57;28.20;54.50
63219;DHT22;49320;52.512;13.448;2023-09-18T15:16:52;28.40;56.60
63219;DHT22;49320;52.512;13.448;2023-09-18T15:19:19;28.30;53.70
63219;DHT22;49320;52.512;13.448;2023-09-18T15:21:46;28.20;56.10
63219;DHT22;49320;52.512;13.448;2023-09-18T15:24:13;28.30;53.80
63219;DHT22;49320;52.512;13.448;2023-09-18T15:26:40;28.30;54.20
63219;DHT22;49320;52.512;13.448;2023-09-18T15:29:08;28.50;56.50
63219;DHT22;49320;52.512;13.448;2023-09-18T15:31:35;28.20;56.40
63219;DHT22;49320;52.512;13.448;2023-09-18T15:34:02;28.50;56.70
63219;DHT22;49320;52.512;13.448;2023-09-18T15:36:30;28.30;54.20
63219;DHT22;49320;52.512;13.448;2023-09-18T15:38:58;28.30;54.10
63219;DHT22;49320;52.512;13.448;2023-09-18T15:41:26;28.30;53.30
63219;DHT22;49320;52.512;13.448;2023-09-18T15:43:55;28.30;54.00
63219;DHT22;49320;52.512;13.448;2023-09-18T15:46:22;28.30;56.10
63219;DHT22;49320;52.512;13.448;2023-09-18T15:48:50;28.20;56.80
63219;DHT22;49320;52.512;13.448;2023-09-18T15:51:17;28.10;55.80
63219;DHT22;49320;52.512;13.448;2023-09-18T15:56:12;28.30;57.10
63219;DHT22;49320;52.512;13.448;2023-09-18T15:58:40;28.00;56.50
63219;DHT22;49320;52.512;13.448;2023-09-18T16:01:07;28.50;56.50
63219;DHT22;49320;52.512;13.448;2023-09-18T16:03:37;27.80;56.80
63219;DHT22;49320;52.512;13.448;2023-09-18T16:06:07;28.10;53.50
63219;DHT22;49320;52.512;13.448;2023-09-18T16:08:34;28.00;53.50
63219;DHT22;49320;52.512;13.448;2023-09-18T16:11:02;28.00;54.00
63219;DHT22;49320;52.512;13.448;2023-09-18T16:13:29;28.30;55.70
63219;DHT22;49320;52.512;13.448;2023-09-18T16:15:56;27.90;55.70
63219;DHT22;49320;52.512;13.448;2023-09-18T16:18:25;27.90;56.30
63219;DHT22;49320;52.512;13.448;2023-09-18T16:20:51;27.90;53.90
63219;DHT22;49320;52.512;13.448;2023-09-18T16:23:18;27.70;55.50
63219;DHT22;49320;52.512;13.448;2023-09-18T16:25:45;27.70;57.80
63219;DHT22;49320;52.512;13.448;2023-09-18T16:28:13;27.80;57.20
63219;DHT22;49320;52.512;13.448;2023-09-18T16:30:40;27.90;57.80
63219;DHT22;49320;52.512;13.448;2023-09-18T16:33:06;27.70;57.90
63219;DHT22;49320;52.512;13.448;2023-09-18T16:35:34;27.40;57.00
63219;DHT22;49320;52.512;13.448;2023-09-18T16:38:01;27.50;55.80
63219;DHT22;49320;52.512;13.448;2023-09-18T16:40:29;27.40;55.90
63219;DHT22;49320;52.512;13.448;2023-09-18T16:43:00;27.30;56.10
63219;DHT22;49320;52.512;13.448;2023-09-18T16:45:27;26.90;58.30
63219;DHT22;49320;52.512;13.448;2023-09-18T16:47:53;27.00;56.50
63219;DHT22;49320;52.512;13.448;2023-09-18T16:50:20;27.00;56.80
63219;DHT22;49320;52.512;13.448;2023-09-18T16:52:48;26.90;57.00
63219;DHT22;49320;52.512;13.448;2023-09-18T16:55:15;26.90;58.00
63219;DHT22;49320;52.512;13.448;2023-09-18T16:57:42;26.70;57.40
63219;DHT22;49320;52.512;13.448;2023-09-18T17:00:09;26.60;57.60
63219;DHT22;49320;52.512;13.448;2023-09-18T17:02:36;26.60;57.90
63219;DHT22;49320;52.512;13.448;2023-09-18T17:05:03;26.40;58.10
63219;DHT22;49320;52.512;13.448;2023-09-18T17:09:58;26.30;61.20
63219;DHT22;49320;52.512;13.448;2023-09-18T17:12:25;26.20;58.80
63219;DHT22;49320;52.512;13.448;2023-09-18T17:14:52;26.10;59.00
63219;DHT22;49320;52.512;13.448;2023-09-18T17:17:20;25.90;59.40
63219;DHT22;49320;52.512;13.448;2023-09-18T17:19:47;26.00;59.40
63219;DHT22;49320;52.512;13.448;2023-09-18T17:22:14;25.90;59.70
63219;DHT22;49320;52.512;13.448;2023-09-18T17:24:43;25.90;59.60
63219;DHT22;49320;52.512;13.448;2023-09-18T17:27:10;25.90;60.60
63219;DHT22;49320;52.512;13.448;2023-09-18T17:29:37;25.80;60.60
63219;DHT22;49320;52.512;13.448;2023-09-18T17:32:04;25.60;63.10
63219;DHT22;49320;52.512;13.448;2023-09-18T17:34:31;25.60;60.40
63219;DHT22;49320;52.512;13.448;2023-09-18T17:36:58;25.60;63.50